Terminal Aerodrome Forecast
Issued by NWS

Current Version | Previous Version | Text Only | Print | Product List | Glossary On
Versions: 1 2 3 4 5 6 7 8 9 10 11 12 13 14
720
FTUS43 KOAX 080520
TAFSNY
TAF
KSNY 080520Z 0806/0906 31017KT P6SM SCT250
     FM081800 31020G27KT P6SM SCT080 SCT250
     FM090100 31014KT P6SM SCT080=

USA.gov is the U.S. government's official web portal to all federal, state and local government web resources and services.